Wainwright, Alaska
Current Conditions -  °F | °C
As of 6:00 PM on Monday 20 Oct 2014 (Local Time) from PAWI Reporting Station
Light Snow Light Snow  
Wind Chill:   Ceiling: 2000
Heat Index: 19°   Visibility: 1.2mi
Dew Point: 14°   Wind: 26mph
Humidity: 80%   Direction: 40°NE
Pressure: 29.84"   Gusts: 35mph
Location:  70.64°N, 160.04°W
Report Text: PAWI 210200Z AUTO 04023G30KT 1 1/4SM -SN OVC020 M07/M10 A2984 RMK AO2 PK WND 04030/0154 P0000 TSNO
Loading
Personal Weather Stations






























Interactive Weather Map
Tropical Storm Tracking
New forecast layout! Learn more

10-Day Weather Forecast

Advertisements
Track Severe Weather on mobile